RRR4183 DAAG-LIRF
Flight info
| Callsign | RRR4183 |
|---|---|
| Flight time | 1h 24m |
| Altitude | 30000 |
| Route | BOURI1C BOURI UG26 REQIN DCT ORKUM DCT ELSAG DCT ALG DCT ROMPO DCT TINTO L5 VALMA |
| Aircraft | A400/H-SDE2E3FGHIJ4J5M1RWXYZ/L4T |
Departure
| Time | 2026-05-06 15:13 |
|---|---|
| Airport | Houari Boumediene Airport (DAAG) |
Arrival
| Time | 2026-05-06 16:37 |
|---|---|
| Airport | Rome–Fiumicino Leonardo da Vinci International Airport (LIRF) |
| Time | Latitude | Longitude | Altitude | Speed | Heading |
|---|---|---|---|---|---|
| 2026-05-06 15:00 | 36.69383 | 3.20174 | 79 ft | 0 kts | 181° |
| 2026-05-06 15:02 | 36.69396 | 3.20174 | 84 ft | 4 kts | 178° |
| 2026-05-06 15:03 | 36.69422 | 3.20170 | 84 ft | 4 kts | 162° |
| 2026-05-06 15:03 | 36.69445 | 3.20156 | 83 ft | 4 kts | 127° |
| 2026-05-06 15:03 | 36.69452 | 3.20137 | 83 ft | 1 kts | 92° |
| 2026-05-06 15:03 | 36.69452 | 3.20133 | 80 ft | 0 kts | 92° |
| 2026-05-06 15:05 | 36.69452 | 3.20140 | 84 ft | 2 kts | 92° |
| 2026-05-06 15:06 | 36.69451 | 3.20174 | 84 ft | 5 kts | 92° |
| 2026-05-06 15:06 | 36.69448 | 3.20230 | 84 ft | 6 kts | 100° |
| 2026-05-06 15:06 | 36.69446 | 3.20265 | 83 ft | 5 kts | 95° |
| 2026-05-06 15:06 | 36.69431 | 3.20288 | 84 ft | 5 kts | 154° |
| 2026-05-06 15:07 | 36.69381 | 3.20292 | 83 ft | 10 kts | 184° |
| 2026-05-06 15:07 | 36.69304 | 3.20257 | 86 ft | 13 kts | 242° |
| 2026-05-06 15:07 | 36.69301 | 3.20131 | 81 ft | 16 kts | 272° |
| 2026-05-06 15:07 | 36.69308 | 3.19973 | 84 ft | 20 kts | 274° |
| 2026-05-06 15:08 | 36.69309 | 3.19794 | 82 ft | 22 kts | 268° |
| 2026-05-06 15:08 | 36.69314 | 3.19594 | 83 ft | 24 kts | 272° |
| 2026-05-06 15:08 | 36.69320 | 3.19376 | 84 ft | 26 kts | 271° |
| 2026-05-06 15:08 | 36.69324 | 3.19144 | 84 ft | 28 kts | 271° |
| 2026-05-06 15:09 | 36.69332 | 3.18908 | 84 ft | 26 kts | 272° |
| 2026-05-06 15:09 | 36.69337 | 3.18692 | 81 ft | 24 kts | 270° |
| 2026-05-06 15:09 | 36.69339 | 3.18494 | 80 ft | 22 kts | 271° |
| 2026-05-06 15:09 | 36.69344 | 3.18311 | 80 ft | 20 kts | 272° |
| 2026-05-06 15:10 | 36.69349 | 3.18140 | 81 ft | 19 kts | 271° |
| 2026-05-06 15:10 | 36.69353 | 3.17967 | 80 ft | 20 kts | 271° |
| 2026-05-06 15:10 | 36.69357 | 3.17790 | 83 ft | 20 kts | 272° |
| 2026-05-06 15:10 | 36.69362 | 3.17609 | 84 ft | 22 kts | 271° |
| 2026-05-06 15:11 | 36.69367 | 3.17416 | 80 ft | 23 kts | 271° |
| 2026-05-06 15:11 | 36.69373 | 3.17214 | 81 ft | 24 kts | 273° |
| 2026-05-06 15:11 | 36.69331 | 3.17100 | 86 ft | 10 kts | 181° |
| 2026-05-06 15:11 | 36.69260 | 3.17099 | 92 ft | 10 kts | 180° |
| 2026-05-06 15:12 | 36.69204 | 3.17129 | 94 ft | 10 kts | 115° |
| 2026-05-06 15:12 | 36.69202 | 3.17220 | 89 ft | 11 kts | 92° |
| 2026-05-06 15:12 | 36.69199 | 3.17395 | 88 ft | 53 kts | 91° |
| 2026-05-06 15:12 | 36.69179 | 3.18288 | 90 ft | 150 kts | 94° |
| 2026-05-06 15:13 | 36.69136 | 3.19812 | 335 ft | 191 kts | 88° |
| 2026-05-06 15:13 | 36.69403 | 3.21420 | 1176 ft | 193 kts | 60° |
| 2026-05-06 15:13 | 36.70395 | 3.22524 | 2102 ft | 200 kts | 19° |
| 2026-05-06 15:13 | 36.71768 | 3.23033 | 3012 ft | 212 kts | 16° |
| 2026-05-06 15:14 | 36.73244 | 3.23559 | 3904 ft | 229 kts | 15° |
| 2026-05-06 15:14 | 36.74831 | 3.24080 | 4861 ft | 243 kts | 13° |
| 2026-05-06 15:14 | 36.76508 | 3.24689 | 5701 ft | 259 kts | 14° |
| 2026-05-06 15:14 | 36.78281 | 3.25378 | 6544 ft | 273 kts | 15° |
| 2026-05-06 15:15 | 36.80115 | 3.26109 | 7485 ft | 279 kts | 15° |
| 2026-05-06 15:15 | 36.81980 | 3.26861 | 8488 ft | 284 kts | 15° |
| 2026-05-06 15:15 | 36.83877 | 3.27627 | 9504 ft | 289 kts | 15° |
| 2026-05-06 15:15 | 36.85813 | 3.28410 | 10365 ft | 299 kts | 15° |
| 2026-05-06 15:16 | 36.87871 | 3.29239 | 10762 ft | 322 kts | 15° |
| 2026-05-06 15:16 | 36.90063 | 3.30125 | 11191 ft | 338 kts | 15° |
| 2026-05-06 15:16 | 36.92298 | 3.31031 | 11762 ft | 346 kts | 15° |
| 2026-05-06 15:16 | 36.94611 | 3.31970 | 12403 ft | 352 kts | 15° |
| 2026-05-06 15:17 | 36.96950 | 3.32921 | 13096 ft | 356 kts | 16° |
| 2026-05-06 15:17 | 36.99328 | 3.33888 | 13773 ft | 361 kts | 16° |
| 2026-05-06 15:17 | 37.00950 | 3.34547 | 14185 ft | 364 kts | 16° |
| 2026-05-06 15:17 | 37.04167 | 3.35855 | 15005 ft | 369 kts | 15° |
| 2026-05-06 15:18 | 37.06628 | 3.36856 | 15620 ft | 374 kts | 15° |
| 2026-05-06 15:18 | 37.08271 | 3.37525 | 16031 ft | 376 kts | 15° |
| 2026-05-06 15:18 | 37.11626 | 3.38892 | 16844 ft | 382 kts | 15° |
| 2026-05-06 15:18 | 37.14126 | 3.40096 | 17449 ft | 389 kts | 22° |
| 2026-05-06 15:19 | 37.16451 | 3.41904 | 18054 ft | 398 kts | 36° |
| 2026-05-06 15:19 | 37.18406 | 3.44401 | 18575 ft | 406 kts | 50° |
| 2026-05-06 15:19 | 37.19507 | 3.46315 | 18914 ft | 410 kts | 54° |
| 2026-05-06 15:19 | 37.21603 | 3.50343 | 19609 ft | 416 kts | 57° |
| 2026-05-06 15:20 | 37.23172 | 3.53413 | 20136 ft | 419 kts | 57° |
| 2026-05-06 15:20 | 37.24739 | 3.56467 | 20639 ft | 423 kts | 57° |
| 2026-05-06 15:20 | 37.25818 | 3.58565 | 20988 ft | 426 kts | 57° |
| 2026-05-06 15:20 | 37.27965 | 3.62728 | 21652 ft | 431 kts | 57° |
| 2026-05-06 15:21 | 37.29071 | 3.64871 | 21994 ft | 434 kts | 57° |
| 2026-05-06 15:21 | 37.31258 | 3.69107 | 22641 ft | 439 kts | 57° |
| 2026-05-06 15:21 | 37.32383 | 3.71287 | 22959 ft | 441 kts | 57° |
| 2026-05-06 15:21 | 37.34606 | 3.75599 | 23549 ft | 446 kts | 57° |
| 2026-05-06 15:22 | 37.35748 | 3.77816 | 23799 ft | 448 kts | 57° |
| 2026-05-06 15:22 | 37.37448 | 3.81116 | 24176 ft | 451 kts | 57° |
| 2026-05-06 15:22 | 37.39151 | 3.84427 | 24567 ft | 452 kts | 57° |
| 2026-05-06 15:22 | 37.40842 | 3.87719 | 24913 ft | 454 kts | 57° |
| 2026-05-06 15:23 | 37.42563 | 3.91071 | 25213 ft | 458 kts | 57° |
| 2026-05-06 15:23 | 37.44301 | 3.94459 | 25524 ft | 461 kts | 57° |
| 2026-05-06 15:23 | 37.46040 | 3.97854 | 25845 ft | 463 kts | 57° |
| 2026-05-06 15:23 | 37.47788 | 4.01270 | 26154 ft | 465 kts | 57° |
| 2026-05-06 15:24 | 37.49542 | 4.04700 | 26452 ft | 466 kts | 57° |
| 2026-05-06 15:24 | 37.51302 | 4.08145 | 26745 ft | 468 kts | 57° |
| 2026-05-06 15:24 | 37.53066 | 4.11603 | 27057 ft | 469 kts | 57° |
| 2026-05-06 15:24 | 37.54828 | 4.15061 | 27413 ft | 469 kts | 57° |
| 2026-05-06 15:25 | 37.56587 | 4.18515 | 27776 ft | 468 kts | 57° |
| 2026-05-06 15:25 | 37.58343 | 4.21967 | 28150 ft | 467 kts | 57° |
| 2026-05-06 15:25 | 37.60094 | 4.25414 | 28543 ft | 466 kts | 57° |
| 2026-05-06 15:25 | 37.61841 | 4.28856 | 28938 ft | 466 kts | 57° |
| 2026-05-06 15:26 | 37.63564 | 4.32255 | 29328 ft | 465 kts | 57° |
| 2026-05-06 15:26 | 37.65311 | 4.35704 | 29709 ft | 466 kts | 57° |
| 2026-05-06 15:26 | 37.67057 | 4.39154 | 30097 ft | 465 kts | 57° |
| 2026-05-06 15:26 | 37.68796 | 4.42595 | 30445 ft | 465 kts | 57° |
| 2026-05-06 15:27 | 37.70531 | 4.46032 | 30793 ft | 464 kts | 57° |
| 2026-05-06 15:27 | 37.72267 | 4.49473 | 31148 ft | 463 kts | 57° |
| 2026-05-06 15:27 | 37.73998 | 4.52908 | 31502 ft | 463 kts | 57° |
| 2026-05-06 15:27 | 37.75724 | 4.56338 | 31822 ft | 462 kts | 57° |
| 2026-05-06 15:28 | 37.77448 | 4.59767 | 31926 ft | 463 kts | 57° |
| 2026-05-06 15:28 | 37.80906 | 4.66655 | 31922 ft | 464 kts | 57° |
| 2026-05-06 15:29 | 37.84358 | 4.73544 | 31919 ft | 463 kts | 57° |
| 2026-05-06 15:29 | 37.87783 | 4.80397 | 31925 ft | 463 kts | 57° |
| 2026-05-06 15:30 | 37.91224 | 4.87293 | 31925 ft | 462 kts | 57° |
| 2026-05-06 15:30 | 37.94762 | 4.94079 | 31920 ft | 461 kts | 50° |
| 2026-05-06 15:31 | 37.99023 | 5.00142 | 31919 ft | 460 kts | 44° |
| 2026-05-06 15:31 | 38.03567 | 5.05815 | 31923 ft | 459 kts | 41° |
| 2026-05-06 15:32 | 38.10546 | 5.14152 | 31926 ft | 459 kts | 41° |
| 2026-05-06 15:32 | 38.15139 | 5.19700 | 31919 ft | 459 kts | 41° |
| 2026-05-06 15:33 | 38.19755 | 5.25326 | 31924 ft | 459 kts | 41° |
| 2026-05-06 15:33 | 38.24355 | 5.30956 | 31921 ft | 459 kts | 41° |
| 2026-05-06 15:34 | 38.28952 | 5.36590 | 31928 ft | 459 kts | 41° |
| 2026-05-06 15:34 | 38.33549 | 5.42233 | 31927 ft | 459 kts | 41° |
| 2026-05-06 15:35 | 38.38145 | 5.47884 | 31926 ft | 459 kts | 41° |
| 2026-05-06 15:35 | 38.42733 | 5.53535 | 31925 ft | 459 kts | 41° |
| 2026-05-06 15:36 | 38.47324 | 5.59201 | 31930 ft | 459 kts | 41° |
| 2026-05-06 15:36 | 38.51912 | 5.64875 | 31943 ft | 459 kts | 41° |
| 2026-05-06 15:37 | 38.56497 | 5.70555 | 31935 ft | 460 kts | 42° |
| 2026-05-06 15:37 | 38.61079 | 5.76241 | 31929 ft | 459 kts | 42° |
| 2026-05-06 15:38 | 38.65659 | 5.81936 | 31927 ft | 458 kts | 42° |
| 2026-05-06 15:38 | 38.70226 | 5.87626 | 31927 ft | 458 kts | 42° |
| 2026-05-06 15:39 | 38.74770 | 5.93297 | 31951 ft | 459 kts | 42° |
| 2026-05-06 15:39 | 38.79340 | 5.99011 | 31926 ft | 460 kts | 42° |
| 2026-05-06 15:40 | 38.83922 | 6.04751 | 31929 ft | 460 kts | 42° |
| 2026-05-06 15:40 | 38.88498 | 6.10496 | 31922 ft | 460 kts | 42° |
| 2026-05-06 15:41 | 38.93032 | 6.16199 | 31932 ft | 459 kts | 42° |
| 2026-05-06 15:41 | 38.97593 | 6.21945 | 31934 ft | 459 kts | 42° |
| 2026-05-06 15:42 | 39.02625 | 6.26922 | 31936 ft | 455 kts | 30° |
| 2026-05-06 15:42 | 39.08003 | 6.31216 | 31935 ft | 454 kts | 27° |
| 2026-05-06 15:43 | 39.11638 | 6.34003 | 31933 ft | 454 kts | 27° |
| 2026-05-06 15:43 | 39.18877 | 6.39535 | 31940 ft | 455 kts | 27° |
| 2026-05-06 15:44 | 39.24319 | 6.43726 | 31933 ft | 456 kts | 27° |
| 2026-05-06 15:44 | 39.29754 | 6.47934 | 31937 ft | 455 kts | 27° |
| 2026-05-06 15:45 | 39.35184 | 6.52149 | 31930 ft | 455 kts | 27° |
| 2026-05-06 15:45 | 39.40616 | 6.56373 | 31941 ft | 455 kts | 27° |
| 2026-05-06 15:46 | 39.46013 | 6.60575 | 31939 ft | 456 kts | 27° |
| 2026-05-06 15:46 | 39.51444 | 6.64812 | 31938 ft | 456 kts | 27° |
| 2026-05-06 15:47 | 39.56877 | 6.69059 | 31938 ft | 456 kts | 28° |
| 2026-05-06 15:47 | 39.62313 | 6.73316 | 31957 ft | 456 kts | 28° |
| 2026-05-06 15:48 | 39.67749 | 6.77580 | 31939 ft | 457 kts | 28° |
| 2026-05-06 15:48 | 39.73194 | 6.81860 | 31941 ft | 457 kts | 28° |
| 2026-05-06 15:49 | 39.78630 | 6.86141 | 31928 ft | 457 kts | 28° |
| 2026-05-06 15:49 | 39.84065 | 6.90429 | 31953 ft | 457 kts | 28° |
| 2026-05-06 15:50 | 39.89500 | 6.94724 | 31940 ft | 457 kts | 28° |
| 2026-05-06 15:50 | 39.94933 | 6.99026 | 31936 ft | 457 kts | 28° |
| 2026-05-06 15:51 | 40.00371 | 7.03341 | 31937 ft | 457 kts | 28° |
| 2026-05-06 15:51 | 40.05811 | 7.07665 | 31943 ft | 458 kts | 28° |
| 2026-05-06 15:52 | 40.11217 | 7.11970 | 31935 ft | 458 kts | 28° |
| 2026-05-06 15:52 | 40.16651 | 7.16306 | 31941 ft | 458 kts | 28° |
| 2026-05-06 15:53 | 40.22088 | 7.20653 | 31935 ft | 458 kts | 28° |
| 2026-05-06 15:53 | 40.27531 | 7.25011 | 31941 ft | 458 kts | 29° |
| 2026-05-06 15:54 | 40.32974 | 7.29379 | 31938 ft | 459 kts | 29° |
| 2026-05-06 15:54 | 40.38422 | 7.33759 | 31939 ft | 459 kts | 29° |
| 2026-05-06 15:55 | 40.43867 | 7.38145 | 31939 ft | 459 kts | 29° |
| 2026-05-06 15:55 | 40.49309 | 7.42547 | 31938 ft | 459 kts | 30° |
| 2026-05-06 15:56 | 40.51864 | 7.45091 | 31938 ft | 462 kts | 41° |
| 2026-05-06 15:56 | 40.54031 | 7.48133 | 31938 ft | 462 kts | 52° |
| 2026-05-06 15:56 | 40.55741 | 7.51708 | 31938 ft | 461 kts | 65° |
| 2026-05-06 15:56 | 40.56856 | 7.55638 | 31938 ft | 457 kts | 78° |
| 2026-05-06 15:57 | 40.57889 | 7.63853 | 31936 ft | 454 kts | 87° |
| 2026-05-06 15:57 | 40.58555 | 7.72094 | 31937 ft | 453 kts | 88° |
| 2026-05-06 15:58 | 40.59187 | 7.80339 | 31937 ft | 453 kts | 88° |
| 2026-05-06 15:58 | 40.59854 | 7.88573 | 31941 ft | 453 kts | 88° |
| 2026-05-06 15:59 | 40.60542 | 7.96822 | 31937 ft | 453 kts | 88° |
| 2026-05-06 15:59 | 40.61230 | 8.05060 | 31940 ft | 453 kts | 88° |
| 2026-05-06 16:00 | 40.61908 | 8.13239 | 31940 ft | 453 kts | 88° |
| 2026-05-06 16:00 | 40.62608 | 8.21481 | 31932 ft | 454 kts | 84° |
| 2026-05-06 16:01 | 40.64442 | 8.29484 | 31937 ft | 459 kts | 72° |
| 2026-05-06 16:01 | 40.66824 | 8.37287 | 31933 ft | 460 kts | 70° |
| 2026-05-06 16:02 | 40.69314 | 8.45063 | 31939 ft | 460 kts | 70° |
| 2026-05-06 16:02 | 40.71788 | 8.52832 | 31937 ft | 460 kts | 70° |
| 2026-05-06 16:03 | 40.74239 | 8.60622 | 31939 ft | 459 kts | 70° |
| 2026-05-06 16:03 | 40.76264 | 8.67099 | 31942 ft | 460 kts | 70° |
| 2026-05-06 16:04 | 40.79083 | 8.76152 | 31934 ft | 458 kts | 70° |
| 2026-05-06 16:04 | 40.81503 | 8.83945 | 31940 ft | 458 kts | 70° |
| 2026-05-06 16:05 | 40.83918 | 8.91741 | 31942 ft | 458 kts | 70° |
| 2026-05-06 16:05 | 40.86325 | 8.99534 | 31940 ft | 458 kts | 70° |
| 2026-05-06 16:06 | 40.88730 | 9.07341 | 31941 ft | 458 kts | 70° |
| 2026-05-06 16:06 | 40.91115 | 9.15110 | 31956 ft | 460 kts | 70° |
| 2026-05-06 16:07 | 40.93534 | 9.23011 | 31937 ft | 461 kts | 70° |
| 2026-05-06 16:07 | 40.95931 | 9.30865 | 31937 ft | 461 kts | 70° |
| 2026-05-06 16:08 | 40.98310 | 9.38681 | 31942 ft | 460 kts | 70° |
| 2026-05-06 16:08 | 41.00697 | 9.46543 | 31911 ft | 460 kts | 71° |
| 2026-05-06 16:09 | 41.03087 | 9.54448 | 31936 ft | 466 kts | 72° |
| 2026-05-06 16:09 | 41.05092 | 9.61095 | 31937 ft | 467 kts | 72° |
| 2026-05-06 16:10 | 41.07497 | 9.69084 | 31937 ft | 467 kts | 72° |
| 2026-05-06 16:10 | 41.09902 | 9.77098 | 31936 ft | 467 kts | 72° |
| 2026-05-06 16:11 | 41.12300 | 9.85109 | 31920 ft | 467 kts | 72° |
| 2026-05-06 16:11 | 41.14703 | 9.93169 | 31945 ft | 471 kts | 72° |
| 2026-05-06 16:12 | 41.17113 | 10.01276 | 31944 ft | 472 kts | 73° |
| 2026-05-06 16:12 | 41.19519 | 10.09386 | 31939 ft | 472 kts | 73° |
| 2026-05-06 16:13 | 41.21917 | 10.17497 | 31943 ft | 472 kts | 73° |
| 2026-05-06 16:13 | 41.24293 | 10.25562 | 31938 ft | 472 kts | 73° |
| 2026-05-06 16:14 | 41.26683 | 10.33699 | 31940 ft | 472 kts | 73° |
| 2026-05-06 16:14 | 41.29063 | 10.41827 | 31944 ft | 472 kts | 73° |
| 2026-05-06 16:15 | 41.31445 | 10.49987 | 31933 ft | 473 kts | 73° |
| 2026-05-06 16:15 | 41.33823 | 10.58162 | 31928 ft | 474 kts | 73° |
| 2026-05-06 16:16 | 41.36196 | 10.66340 | 31944 ft | 474 kts | 73° |
| 2026-05-06 16:16 | 41.38552 | 10.74488 | 31945 ft | 474 kts | 73° |
| 2026-05-06 16:17 | 41.40917 | 10.82691 | 31941 ft | 474 kts | 73° |
| 2026-05-06 16:17 | 41.43272 | 10.90889 | 31944 ft | 474 kts | 73° |
| 2026-05-06 16:18 | 41.45625 | 10.99104 | 31947 ft | 474 kts | 73° |
| 2026-05-06 16:18 | 41.47972 | 11.07334 | 31949 ft | 475 kts | 73° |
| 2026-05-06 16:19 | 41.50302 | 11.15598 | 31946 ft | 475 kts | 73° |
| 2026-05-06 16:19 | 41.52609 | 11.23815 | 31945 ft | 476 kts | 73° |
| 2026-05-06 16:20 | 41.54923 | 11.32079 | 31927 ft | 476 kts | 73° |
| 2026-05-06 16:20 | 41.57242 | 11.40387 | 31946 ft | 477 kts | 73° |
| 2026-05-06 16:21 | 41.58392 | 11.44478 | 31718 ft | 464 kts | 72° |
| 2026-05-06 16:21 | 41.59530 | 11.48504 | 30943 ft | 465 kts | 72° |
| 2026-05-06 16:21 | 41.60672 | 11.52553 | 30138 ft | 467 kts | 72° |
| 2026-05-06 16:21 | 41.61817 | 11.56620 | 29222 ft | 468 kts | 72° |
| 2026-05-06 16:22 | 41.62967 | 11.60709 | 28209 ft | 471 kts | 72° |
| 2026-05-06 16:22 | 41.64108 | 11.64768 | 27235 ft | 465 kts | 72° |
| 2026-05-06 16:22 | 41.65231 | 11.68761 | 25735 ft | 447 kts | 72° |
| 2026-05-06 16:22 | 41.66305 | 11.72590 | 24482 ft | 428 kts | 72° |
| 2026-05-06 16:23 | 41.67319 | 11.76210 | 23555 ft | 405 kts | 72° |
| 2026-05-06 16:23 | 41.68282 | 11.79660 | 22393 ft | 389 kts | 72° |
| 2026-05-06 16:23 | 41.69191 | 11.82914 | 22008 ft | 354 kts | 72° |
| 2026-05-06 16:23 | 41.70015 | 11.85865 | 21821 ft | 335 kts | 72° |
| 2026-05-06 16:24 | 41.70846 | 11.88882 | 21356 ft | 355 kts | 72° |
| 2026-05-06 16:24 | 41.71720 | 11.92064 | 20652 ft | 371 kts | 72° |
| 2026-05-06 16:24 | 41.72623 | 11.95349 | 19666 ft | 383 kts | 73° |
| 2026-05-06 16:24 | 41.73608 | 11.98622 | 18479 ft | 372 kts | 63° |
| 2026-05-06 16:25 | 41.75250 | 12.01217 | 17122 ft | 361 kts | 36° |
| 2026-05-06 16:25 | 41.77460 | 12.02599 | 15866 ft | 344 kts | 11° |
| 2026-05-06 16:25 | 41.79747 | 12.02556 | 14696 ft | 327 kts | 341° |
| 2026-05-06 16:25 | 41.81813 | 12.01422 | 13587 ft | 317 kts | 331° |
| 2026-05-06 16:26 | 41.83783 | 12.00172 | 12374 ft | 309 kts | 333° |
| 2026-05-06 16:26 | 41.85753 | 11.99032 | 11246 ft | 311 kts | 334° |
| 2026-05-06 16:26 | 41.87812 | 11.97976 | 10399 ft | 320 kts | 336° |
| 2026-05-06 16:26 | 41.89925 | 11.96980 | 9614 ft | 324 kts | 338° |
| 2026-05-06 16:27 | 41.92077 | 11.96014 | 8813 ft | 324 kts | 339° |
| 2026-05-06 16:27 | 41.94134 | 11.95120 | 8148 ft | 299 kts | 339° |
| 2026-05-06 16:27 | 41.96097 | 11.94276 | 7566 ft | 293 kts | 339° |
| 2026-05-06 16:27 | 41.98034 | 11.93444 | 7045 ft | 293 kts | 339° |
| 2026-05-06 16:28 | 41.99984 | 11.92609 | 6624 ft | 292 kts | 338° |
| 2026-05-06 16:28 | 42.01885 | 11.91799 | 6274 ft | 288 kts | 339° |
| 2026-05-06 16:28 | 42.03807 | 11.90980 | 6039 ft | 286 kts | 339° |
| 2026-05-06 16:28 | 42.05714 | 11.90240 | 5887 ft | 287 kts | 346° |
| 2026-05-06 16:29 | 42.07693 | 11.90460 | 5727 ft | 291 kts | 19° |
| 2026-05-06 16:29 | 42.09304 | 11.92074 | 5576 ft | 292 kts | 54° |
| 2026-05-06 16:29 | 42.10110 | 11.94534 | 5433 ft | 288 kts | 77° |
| 2026-05-06 16:29 | 42.10579 | 11.97157 | 5319 ft | 288 kts | 79° |
| 2026-05-06 16:30 | 42.11050 | 11.99774 | 5194 ft | 289 kts | 78° |
| 2026-05-06 16:30 | 42.11358 | 12.01509 | 5111 ft | 286 kts | 83° |
| 2026-05-06 16:30 | 42.11061 | 12.04922 | 4943 ft | 271 kts | 122° |
| 2026-05-06 16:30 | 42.09959 | 12.06938 | 4827 ft | 265 kts | 135° |
| 2026-05-06 16:31 | 42.08713 | 12.08753 | 4701 ft | 263 kts | 137° |
| 2026-05-06 16:31 | 42.07457 | 12.10529 | 4579 ft | 261 kts | 138° |
| 2026-05-06 16:31 | 42.06095 | 12.12061 | 4446 ft | 257 kts | 152° |
| 2026-05-06 16:31 | 42.04481 | 12.13054 | 4314 ft | 251 kts | 163° |
| 2026-05-06 16:32 | 42.02870 | 12.13736 | 4179 ft | 236 kts | 166° |
| 2026-05-06 16:32 | 42.01325 | 12.14363 | 4042 ft | 228 kts | 166° |
| 2026-05-06 16:32 | 41.99817 | 12.14981 | 3813 ft | 226 kts | 166° |
| 2026-05-06 16:32 | 41.98311 | 12.15612 | 3512 ft | 226 kts | 165° |
| 2026-05-06 16:33 | 41.96811 | 12.16247 | 3173 ft | 226 kts | 165° |
| 2026-05-06 16:33 | 41.95314 | 12.16878 | 2849 ft | 224 kts | 165° |
| 2026-05-06 16:33 | 41.93859 | 12.17488 | 2554 ft | 212 kts | 165° |
| 2026-05-06 16:34 | 41.91290 | 12.18567 | 2048 ft | 177 kts | 165° |
| 2026-05-06 16:34 | 41.90175 | 12.19035 | 1832 ft | 160 kts | 165° |
| 2026-05-06 16:34 | 41.89119 | 12.19477 | 1650 ft | 158 kts | 164° |
| 2026-05-06 16:34 | 41.88083 | 12.19909 | 1427 ft | 153 kts | 164° |
| 2026-05-06 16:35 | 41.87124 | 12.20312 | 1227 ft | 132 kts | 165° |
| 2026-05-06 16:35 | 41.86284 | 12.20663 | 1062 ft | 124 kts | 162° |
| 2026-05-06 16:35 | 41.85463 | 12.21006 | 891 ft | 123 kts | 161° |
| 2026-05-06 16:35 | 41.84646 | 12.21348 | 730 ft | 123 kts | 163° |
| 2026-05-06 16:36 | 41.83832 | 12.21688 | 558 ft | 123 kts | 164° |
| 2026-05-06 16:36 | 41.83013 | 12.22008 | 364 ft | 121 kts | 163° |
| 2026-05-06 16:36 | 41.82238 | 12.22335 | 242 ft | 113 kts | 159° |
| 2026-05-06 16:36 | 41.81477 | 12.22670 | 93 ft | 121 kts | 163° |
| 2026-05-06 16:37 | 41.80729 | 12.22986 | 27 ft | 100 kts | 162° |
| 2026-05-06 16:37 | 41.80239 | 12.23190 | 27 ft | 48 kts | 163° |
| 2026-05-06 16:37 | 41.80031 | 12.23275 | 27 ft | 23 kts | 162° |
| 2026-05-06 16:37 | 41.79893 | 12.23334 | 28 ft | 19 kts | 162° |
| 2026-05-06 16:38 | 41.79776 | 12.23384 | 24 ft | 16 kts | 160° |
| 2026-05-06 16:38 | 41.79765 | 12.23475 | 25 ft | 12 kts | 69° |
| 2026-05-06 16:38 | 41.79784 | 12.23543 | 26 ft | 5 kts | 69° |
| 2026-05-06 16:38 | 41.79794 | 12.23579 | 24 ft | 0 kts | 69° |
| 2026-05-06 16:40 | 41.79795 | 12.23582 | 25 ft | 2 kts | 69° |
| 2026-05-06 16:40 | 41.79807 | 12.23624 | 24 ft | 8 kts | 69° |
| 2026-05-06 16:40 | 41.79827 | 12.23714 | 27 ft | 13 kts | 75° |
| 2026-05-06 16:40 | 41.79860 | 12.23842 | 24 ft | 16 kts | 69° |
| 2026-05-06 16:41 | 41.79901 | 12.23990 | 26 ft | 18 kts | 71° |
| 2026-05-06 16:41 | 41.79918 | 12.24111 | 24 ft | 8 kts | 88° |
| 2026-05-06 16:41 | 41.79921 | 12.24194 | 24 ft | 10 kts | 78° |
| 2026-05-06 16:41 | 41.79947 | 12.24292 | 25 ft | 12 kts | 70° |
| 2026-05-06 16:42 | 41.79980 | 12.24412 | 24 ft | 15 kts | 70° |
| 2026-05-06 16:42 | 41.80018 | 12.24549 | 25 ft | 16 kts | 69° |
| 2026-05-06 16:42 | 41.80045 | 12.24646 | 24 ft | 17 kts | 70° |
| 2026-05-06 16:42 | 41.80100 | 12.24858 | 27 ft | 18 kts | 71° |
| 2026-05-06 16:43 | 41.80111 | 12.24984 | 23 ft | 7 kts | 98° |
| 2026-05-06 16:43 | 41.80103 | 12.25057 | 23 ft | 9 kts | 98° |
| 2026-05-06 16:43 | 41.80095 | 12.25151 | 23 ft | 11 kts | 89° |
| 2026-05-06 16:43 | 41.80115 | 12.25262 | 26 ft | 13 kts | 70° |
| 2026-05-06 16:44 | 41.80147 | 12.25381 | 24 ft | 7 kts | 68° |
| 2026-05-06 16:44 | 41.80181 | 12.25408 | 23 ft | 8 kts | 19° |
| 2026-05-06 16:44 | 41.80247 | 12.25438 | 25 ft | 12 kts | 18° |
| 2026-05-06 16:44 | 41.80325 | 12.25499 | 27 ft | 15 kts | 58° |
| 2026-05-06 16:45 | 41.80362 | 12.25636 | 27 ft | 17 kts | 71° |
| 2026-05-06 16:45 | 41.80402 | 12.25784 | 27 ft | 16 kts | 69° |
| 2026-05-06 16:45 | 41.80442 | 12.25934 | 25 ft | 18 kts | 71° |
| 2026-05-06 16:45 | 41.80488 | 12.26095 | 25 ft | 16 kts | 69° |
| 2026-05-06 16:46 | 41.80480 | 12.26172 | 26 ft | 5 kts | 148° |
| 2026-05-06 16:46 | 41.80443 | 12.26171 | 28 ft | 6 kts | 192° |
| 2026-05-06 16:46 | 41.80395 | 12.26146 | 25 ft | 8 kts | 205° |
| 2026-05-06 16:46 | 41.80333 | 12.26107 | 25 ft | 11 kts | 205° |
| 2026-05-06 16:47 | 41.80262 | 12.26062 | 23 ft | 12 kts | 205° |
| 2026-05-06 16:47 | 41.80180 | 12.26013 | 23 ft | 13 kts | 204° |
| 2026-05-06 16:47 | 41.80095 | 12.25962 | 25 ft | 14 kts | 206° |
| 2026-05-06 16:47 | 41.80008 | 12.25907 | 25 ft | 14 kts | 205° |
| 2026-05-06 16:48 | 41.79919 | 12.25847 | 24 ft | 13 kts | 222° |
| 2026-05-06 16:48 | 41.79944 | 12.25758 | 23 ft | 13 kts | 304° |
| 2026-05-06 16:48 | 41.79984 | 12.25655 | 23 ft | 14 kts | 295° |
| 2026-05-06 16:48 | 41.80031 | 12.25522 | 25 ft | 17 kts | 295° |
| 2026-05-06 16:49 | 41.80083 | 12.25368 | 23 ft | 13 kts | 290° |
| 2026-05-06 16:49 | 41.80046 | 12.25318 | 23 ft | 8 kts | 225° |
| 2026-05-06 16:49 | 41.80049 | 12.25255 | 24 ft | 8 kts | 295° |
| 2026-05-06 16:49 | 41.80037 | 12.25173 | 24 ft | 10 kts | 218° |
| 2026-05-06 16:50 | 41.79973 | 12.25129 | 24 ft | 10 kts | 205° |
| 2026-05-06 16:50 | 41.79909 | 12.25089 | 23 ft | 11 kts | 205° |
| 2026-05-06 16:50 | 41.79861 | 12.25094 | 24 ft | 6 kts | 131° |
| 2026-05-06 16:50 | 41.79849 | 12.25123 | 23 ft | 5 kts | 116° |
| 2026-05-06 16:51 | 41.79835 | 12.25168 | 24 ft | 2 kts | 113° |
| 2026-05-06 16:51 | 41.79834 | 12.25171 | 25 ft | 0 kts | 113° |